CheckWX is a tool to help pilots better visualize weather data.  It is not intended as a substitute for an official pre-flight weather briefing.

19:57:00 UTC

CYCB TAF
Cambridge Bay Airport
Cambridge Bay, Canada
TAF CYCB 251842Z 2519/2607 10010KT P6SM FEW030 SCT090 RMK NXT FCST BY 260100Z

Jun-25@
19:00 UTC

Jun-25 @ 19:00 UTC

Jun-26@
07:00 UTC

Jun-26 @ 07:00 UTC

TAF CYCB 251842Z 2519/2607 10010KT P6SM FEW030 SCT090 RMK NXT FCST BY 260100Z
Wind
  • 100° at 10 KTS
Cloud Levels
  • Few at 3,000' AGL
  • Scattered at 9,000' AGL